sensor_id;sensor_type;location;lat;lon;timestamp;P1;durP1;ratioP1;P2;durP2;ratioP2
59872;SDS011;50750;51.636;4.948;2023-02-28T00:01:20;4.70;;;2.50;;
59872;SDS011;50750;51.636;4.948;2023-02-28T00:03:47;3.50;;;2.20;;
59872;SDS011;50750;51.636;4.948;2023-02-28T00:06:14;4.60;;;2.40;;
59872;SDS011;50750;51.636;4.948;2023-02-28T00:08:41;4.50;;;2.50;;
59872;SDS011;50750;51.636;4.948;2023-02-28T00:11:09;3.70;;;2.20;;
59872;SDS011;50750;51.636;4.948;2023-02-28T00:16:10;3.60;;;2.40;;
59872;SDS011;50750;51.636;4.948;2023-02-28T00:18:39;4.30;;;2.50;;
59872;SDS011;50750;51.636;4.948;2023-02-28T00:21:05;4.10;;;2.50;;
59872;SDS011;50750;51.636;4.948;2023-02-28T00:23:33;4.50;;;2.40;;
59872;SDS011;50750;51.636;4.948;2023-02-28T00:26:00;4.00;;;2.40;;
59872;SDS011;50750;51.636;4.948;2023-02-28T00:28:27;3.70;;;2.30;;
59872;SDS011;50750;51.636;4.948;2023-02-28T00:30:53;5.40;;;2.80;;
59872;SDS011;50750;51.636;4.948;2023-02-28T00:33:20;4.30;;;2.30;;
59872;SDS011;50750;51.636;4.948;2023-02-28T00:35:47;3.90;;;2.40;;
59872;SDS011;50750;51.636;4.948;2023-02-28T00:38:15;3.70;;;2.30;;
59872;SDS011;50750;51.636;4.948;2023-02-28T00:40:42;3.80;;;2.00;;
59872;SDS011;50750;51.636;4.948;2023-02-28T00:43:09;3.80;;;2.20;;
59872;SDS011;50750;51.636;4.948;2023-02-28T00:45:36;4.10;;;2.40;;
59872;SDS011;50750;51.636;4.948;2023-02-28T00:48:02;4.00;;;2.00;;
59872;SDS011;50750;51.636;4.948;2023-02-28T00:50:30;4.90;;;2.40;;
59872;SDS011;50750;51.636;4.948;2023-02-28T00:52:57;3.30;;;2.30;;
59872;SDS011;50750;51.636;4.948;2023-02-28T00:55:23;4.10;;;2.70;;
59872;SDS011;50750;51.636;4.948;2023-02-28T00:57:49;3.90;;;2.20;;
59872;SDS011;50750;51.636;4.948;2023-02-28T01:00:16;4.00;;;2.50;;
59872;SDS011;50750;51.636;4.948;2023-02-28T01:02:43;3.30;;;2.00;;
59872;SDS011;50750;51.636;4.948;2023-02-28T01:05:10;3.50;;;2.10;;
59872;SDS011;50750;51.636;4.948;2023-02-28T01:07:36;3.40;;;2.10;;
59872;SDS011;50750;51.636;4.948;2023-02-28T01:10:03;4.60;;;2.40;;
59872;SDS011;50750;51.636;4.948;2023-02-28T01:12:30;3.60;;;2.30;;
59872;SDS011;50750;51.636;4.948;2023-02-28T01:14:57;3.20;;;2.10;;
59872;SDS011;50750;51.636;4.948;2023-02-28T01:17:24;2.90;;;1.90;;
59872;SDS011;50750;51.636;4.948;2023-02-28T01:19:52;5.20;;;2.30;;
59872;SDS011;50750;51.636;4.948;2023-02-28T01:22:20;3.40;;;1.90;;
59872;SDS011;50750;51.636;4.948;2023-02-28T01:24:47;3.30;;;2.00;;
59872;SDS011;50750;51.636;4.948;2023-02-28T01:27:14;3.40;;;1.90;;
59872;SDS011;50750;51.636;4.948;2023-02-28T01:29:40;3.90;;;2.00;;
59872;SDS011;50750;51.636;4.948;2023-02-28T01:32:07;2.90;;;1.90;;
59872;SDS011;50750;51.636;4.948;2023-02-28T01:34:33;3.90;;;2.20;;
59872;SDS011;50750;51.636;4.948;2023-02-28T01:37:00;3.80;;;2.00;;
59872;SDS011;50750;51.636;4.948;2023-02-28T01:39:27;3.40;;;2.10;;
59872;SDS011;50750;51.636;4.948;2023-02-28T01:41:53;4.30;;;2.10;;
59872;SDS011;50750;51.636;4.948;2023-02-28T01:47:43;3.70;;;2.00;;
59872;SDS011;50750;51.636;4.948;2023-02-28T01:50:15;3.30;;;2.10;;
59872;SDS011;50750;51.636;4.948;2023-02-28T01:52:45;3.70;;;2.20;;
59872;SDS011;50750;51.636;4.948;2023-02-28T01:55:13;3.30;;;1.90;;
59872;SDS011;50750;51.636;4.948;2023-02-28T01:57:45;3.70;;;2.10;;
59872;SDS011;50750;51.636;4.948;2023-02-28T02:00:16;3.80;;;2.20;;
59872;SDS011;50750;51.636;4.948;2023-02-28T02:02:45;4.30;;;2.20;;
59872;SDS011;50750;51.636;4.948;2023-02-28T02:07:43;3.20;;;2.00;;
59872;SDS011;50750;51.636;4.948;2023-02-28T02:15:40;3.60;;;1.90;;
59872;SDS011;50750;51.636;4.948;2023-02-28T02:35:24;3.30;;;2.00;;
59872;SDS011;50750;51.636;4.948;2023-02-28T02:40:57;4.20;;;2.00;;
59872;SDS011;50750;51.636;4.948;2023-02-28T02:43:40;3.00;;;1.90;;
59872;SDS011;50750;51.636;4.948;2023-02-28T02:46:17;3.00;;;1.80;;
59872;SDS011;50750;51.636;4.948;2023-02-28T02:48:48;4.40;;;2.10;;
59872;SDS011;50750;51.636;4.948;2023-02-28T02:51:17;3.40;;;2.10;;
59872;SDS011;50750;51.636;4.948;2023-02-28T02:53:52;3.70;;;2.10;;
59872;SDS011;50750;51.636;4.948;2023-02-28T02:56:25;4.20;;;2.10;;
59872;SDS011;50750;51.636;4.948;2023-02-28T02:58:55;4.10;;;2.20;;
59872;SDS011;50750;51.636;4.948;2023-02-28T03:01:27;3.60;;;1.90;;
59872;SDS011;50750;51.636;4.948;2023-02-28T03:03:57;3.20;;;1.70;;
59872;SDS011;50750;51.636;4.948;2023-02-28T03:06:27;3.20;;;2.00;;
59872;SDS011;50750;51.636;4.948;2023-02-28T03:08:53;5.00;;;1.80;;
59872;SDS011;50750;51.636;4.948;2023-02-28T03:11:20;3.10;;;2.00;;
59872;SDS011;50750;51.636;4.948;2023-02-28T03:13:52;2.90;;;1.90;;
59872;SDS011;50750;51.636;4.948;2023-02-28T03:24:25;3.40;;;1.90;;
59872;SDS011;50750;51.636;4.948;2023-02-28T03:27:09;3.20;;;1.90;;
59872;SDS011;50750;51.636;4.948;2023-02-28T03:29:46;3.30;;;1.90;;
59872;SDS011;50750;51.636;4.948;2023-02-28T03:32:18;3.90;;;1.90;;
59872;SDS011;50750;51.636;4.948;2023-02-28T03:35:01;2.70;;;1.70;;
59872;SDS011;50750;51.636;4.948;2023-02-28T03:37:36;4.20;;;1.90;;
59872;SDS011;50750;51.636;4.948;2023-02-28T03:40:13;3.60;;;2.20;;
59872;SDS011;50750;51.636;4.948;2023-02-28T03:42:44;3.50;;;1.80;;
59872;SDS011;50750;51.636;4.948;2023-02-28T03:45:21;2.90;;;1.90;;
59872;SDS011;50750;51.636;4.948;2023-02-28T03:47:53;3.10;;;1.90;;
59872;SDS011;50750;51.636;4.948;2023-02-28T03:50:24;3.90;;;2.00;;
59872;SDS011;50750;51.636;4.948;2023-02-28T03:53:02;3.30;;;2.00;;
59872;SDS011;50750;51.636;4.948;2023-02-28T03:55:37;4.10;;;1.80;;
59872;SDS011;50750;51.636;4.948;2023-02-28T03:58:24;3.70;;;1.70;;
59872;SDS011;50750;51.636;4.948;2023-02-28T04:01:03;4.40;;;2.20;;
59872;SDS011;50750;51.636;4.948;2023-02-28T04:03:36;3.40;;;2.00;;
59872;SDS011;50750;51.636;4.948;2023-02-28T04:06:04;3.90;;;1.90;;
59872;SDS011;50750;51.636;4.948;2023-02-28T04:08:33;3.20;;;1.80;;
59872;SDS011;50750;51.636;4.948;2023-02-28T04:13:44;2.60;;;1.70;;
59872;SDS011;50750;51.636;4.948;2023-02-28T04:16:11;4.10;;;2.20;;
59872;SDS011;50750;51.636;4.948;2023-02-28T04:18:38;3.40;;;1.80;;
59872;SDS011;50750;51.636;4.948;2023-02-28T04:21:06;4.30;;;1.90;;
59872;SDS011;50750;51.636;4.948;2023-02-28T04:23:33;3.50;;;1.90;;
59872;SDS011;50750;51.636;4.948;2023-02-28T04:25:59;3.60;;;1.90;;
59872;SDS011;50750;51.636;4.948;2023-02-28T04:28:26;3.10;;;1.70;;
59872;SDS011;50750;51.636;4.948;2023-02-28T04:30:56;4.00;;;2.00;;
59872;SDS011;50750;51.636;4.948;2023-02-28T04:33:23;3.70;;;1.90;;
59872;SDS011;50750;51.636;4.948;2023-02-28T04:36:00;3.10;;;1.90;;
59872;SDS011;50750;51.636;4.948;2023-02-28T04:38:30;2.60;;;1.70;;
59872;SDS011;50750;51.636;4.948;2023-02-28T04:40:59;3.30;;;2.00;;
59872;SDS011;50750;51.636;4.948;2023-02-28T04:43:26;2.70;;;1.60;;
59872;SDS011;50750;51.636;4.948;2023-02-28T04:45:54;3.60;;;2.00;;
59872;SDS011;50750;51.636;4.948;2023-02-28T04:48:27;3.00;;;1.90;;
59872;SDS011;50750;51.636;4.948;2023-02-28T04:50:55;3.10;;;1.80;;
59872;SDS011;50750;51.636;4.948;2023-02-28T04:53:26;3.50;;;2.00;;
59872;SDS011;50750;51.636;4.948;2023-02-28T04:55:54;2.80;;;1.80;;
59872;SDS011;50750;51.636;4.948;2023-02-28T04:58:21;3.20;;;1.90;;
59872;SDS011;50750;51.636;4.948;2023-02-28T05:00:51;3.00;;;1.70;;
59872;SDS011;50750;51.636;4.948;2023-02-28T05:03:19;3.40;;;1.90;;
59872;SDS011;50750;51.636;4.948;2023-02-28T05:05:48;3.20;;;1.90;;
59872;SDS011;50750;51.636;4.948;2023-02-28T05:08:14;2.90;;;1.80;;
59872;SDS011;50750;51.636;4.948;2023-02-28T05:10:41;3.60;;;1.90;;
59872;SDS011;50750;51.636;4.948;2023-02-28T05:13:09;4.10;;;1.90;;
59872;SDS011;50750;51.636;4.948;2023-02-28T05:15:39;3.70;;;1.80;;
59872;SDS011;50750;51.636;4.948;2023-02-28T05:18:07;4.30;;;2.10;;
59872;SDS011;50750;51.636;4.948;2023-02-28T05:20:34;3.30;;;1.70;;
59872;SDS011;50750;51.636;4.948;2023-02-28T05:23:01;4.40;;;2.10;;
59872;SDS011;50750;51.636;4.948;2023-02-28T05:25:28;3.20;;;2.00;;
59872;SDS011;50750;51.636;4.948;2023-02-28T05:27:54;3.50;;;1.90;;
59872;SDS011;50750;51.636;4.948;2023-02-28T05:30:21;3.20;;;2.00;;
59872;SDS011;50750;51.636;4.948;2023-02-28T05:32:49;4.40;;;2.30;;
59872;SDS011;50750;51.636;4.948;2023-02-28T05:35:17;3.40;;;2.00;;
59872;SDS011;50750;51.636;4.948;2023-02-28T05:37:44;3.50;;;2.10;;
59872;SDS011;50750;51.636;4.948;2023-02-28T05:40:11;4.20;;;2.30;;
59872;SDS011;50750;51.636;4.948;2023-02-28T05:42:38;4.00;;;2.10;;
59872;SDS011;50750;51.636;4.948;2023-02-28T05:45:05;3.90;;;2.10;;
59872;SDS011;50750;51.636;4.948;2023-02-28T05:47:33;4.10;;;2.50;;
59872;SDS011;50750;51.636;4.948;2023-02-28T05:50:00;4.50;;;2.50;;
59872;SDS011;50750;51.636;4.948;2023-02-28T05:52:27;3.30;;;2.30;;
59872;SDS011;50750;51.636;4.948;2023-02-28T05:54:56;4.50;;;2.70;;
59872;SDS011;50750;51.636;4.948;2023-02-28T05:57:23;5.00;;;2.60;;
59872;SDS011;50750;51.636;4.948;2023-02-28T05:59:50;5.10;;;2.70;;
59872;SDS011;50750;51.636;4.948;2023-02-28T06:02:17;4.90;;;2.50;;
59872;SDS011;50750;51.636;4.948;2023-02-28T06:04:43;5.30;;;2.80;;
59872;SDS011;50750;51.636;4.948;2023-02-28T06:07:10;4.70;;;2.90;;
59872;SDS011;50750;51.636;4.948;2023-02-28T06:09:37;4.80;;;3.00;;
59872;SDS011;50750;51.636;4.948;2023-02-28T06:12:04;4.50;;;2.80;;
59872;SDS011;50750;51.636;4.948;2023-02-28T06:14:33;3.70;;;2.50;;
59872;SDS011;50750;51.636;4.948;2023-02-28T06:17:00;4.90;;;2.90;;
59872;SDS011;50750;51.636;4.948;2023-02-28T06:19:27;4.50;;;2.70;;
59872;SDS011;50750;51.636;4.948;2023-02-28T06:21:56;4.40;;;2.50;;
59872;SDS011;50750;51.636;4.948;2023-02-28T06:24:23;5.70;;;2.60;;
59872;SDS011;50750;51.636;4.948;2023-02-28T06:26:51;4.40;;;2.60;;
59872;SDS011;50750;51.636;4.948;2023-02-28T06:29:17;3.50;;;2.50;;
59872;SDS011;50750;51.636;4.948;2023-02-28T06:31:45;4.00;;;2.50;;
59872;SDS011;50750;51.636;4.948;2023-02-28T06:34:12;4.40;;;2.50;;
59872;SDS011;50750;51.636;4.948;2023-02-28T06:36:40;3.90;;;2.60;;
59872;SDS011;50750;51.636;4.948;2023-02-28T06:39:07;4.40;;;2.50;;
59872;SDS011;50750;51.636;4.948;2023-02-28T06:41:35;4.50;;;2.70;;
59872;SDS011;50750;51.636;4.948;2023-02-28T06:44:05;4.00;;;2.30;;
59872;SDS011;50750;51.636;4.948;2023-02-28T06:46:38;4.20;;;2.50;;
59872;SDS011;50750;51.636;4.948;2023-02-28T06:49:06;3.90;;;2.30;;
59872;SDS011;50750;51.636;4.948;2023-02-28T06:51:37;3.40;;;2.60;;
59872;SDS011;50750;51.636;4.948;2023-02-28T06:56:35;4.80;;;2.40;;
59872;SDS011;50750;51.636;4.948;2023-02-28T06:59:02;4.90;;;2.40;;
59872;SDS011;50750;51.636;4.948;2023-02-28T07:01:29;3.80;;;2.60;;
59872;SDS011;50750;51.636;4.948;2023-02-28T07:03:59;3.20;;;2.10;;
59872;SDS011;50750;51.636;4.948;2023-02-28T07:06:26;5.30;;;2.50;;
59872;SDS011;50750;51.636;4.948;2023-02-28T07:08:53;4.30;;;2.50;;
59872;SDS011;50750;51.636;4.948;2023-02-28T07:11:22;4.00;;;2.20;;
59872;SDS011;50750;51.636;4.948;2023-02-28T07:13:52;3.50;;;2.10;;
59872;SDS011;50750;51.636;4.948;2023-02-28T07:16:23;4.50;;;2.30;;
59872;SDS011;50750;51.636;4.948;2023-02-28T07:18:54;4.50;;;2.50;;
59872;SDS011;50750;51.636;4.948;2023-02-28T07:21:21;3.80;;;2.20;;
59872;SDS011;50750;51.636;4.948;2023-02-28T07:23:48;4.20;;;2.50;;
59872;SDS011;50750;51.636;4.948;2023-02-28T07:26:15;3.30;;;2.00;;
59872;SDS011;50750;51.636;4.948;2023-02-28T07:28:44;10.10;;;2.90;;
59872;SDS011;50750;51.636;4.948;2023-02-28T07:31:12;7.30;;;3.00;;
59872;SDS011;50750;51.636;4.948;2023-02-28T07:33:41;4.30;;;2.70;;
59872;SDS011;50750;51.636;4.948;2023-02-28T07:36:09;5.80;;;2.50;;
59872;SDS011;50750;51.636;4.948;2023-02-28T07:38:41;4.70;;;2.20;;
59872;SDS011;50750;51.636;4.948;2023-02-28T07:41:10;3.40;;;2.30;;
59872;SDS011;50750;51.636;4.948;2023-02-28T07:43:36;4.00;;;2.40;;
59872;SDS011;50750;51.636;4.948;2023-02-28T07:48:30;3.20;;;2.20;;
59872;SDS011;50750;51.636;4.948;2023-02-28T07:50:58;3.60;;;2.20;;
59872;SDS011;50750;51.636;4.948;2023-02-28T07:53:26;3.70;;;2.00;;
59872;SDS011;50750;51.636;4.948;2023-02-28T07:55:55;3.60;;;2.10;;
59872;SDS011;50750;51.636;4.948;2023-02-28T07:58:23;4.20;;;2.30;;
59872;SDS011;50750;51.636;4.948;2023-02-28T08:00:50;4.10;;;2.30;;
59872;SDS011;50750;51.636;4.948;2023-02-28T08:03:17;3.20;;;1.90;;
59872;SDS011;50750;51.636;4.948;2023-02-28T08:05:45;4.50;;;2.40;;
59872;SDS011;50750;51.636;4.948;2023-02-28T08:08:12;3.90;;;2.00;;
59872;SDS011;50750;51.636;4.948;2023-02-28T08:10:38;3.80;;;2.20;;
59872;SDS011;50750;51.636;4.948;2023-02-28T08:13:05;3.70;;;1.90;;
59872;SDS011;50750;51.636;4.948;2023-02-28T08:15:32;5.30;;;2.00;;
59872;SDS011;50750;51.636;4.948;2023-02-28T08:17:59;3.30;;;2.00;;
59872;SDS011;50750;51.636;4.948;2023-02-28T08:20:25;3.70;;;2.20;;
59872;SDS011;50750;51.636;4.948;2023-02-28T08:22:53;3.20;;;1.80;;
59872;SDS011;50750;51.636;4.948;2023-02-28T08:25:19;3.50;;;1.90;;
59872;SDS011;50750;51.636;4.948;2023-02-28T08:27:46;3.70;;;2.00;;
59872;SDS011;50750;51.636;4.948;2023-02-28T08:30:13;3.00;;;2.00;;
59872;SDS011;50750;51.636;4.948;2023-02-28T08:32:40;3.00;;;1.60;;
59872;SDS011;50750;51.636;4.948;2023-02-28T08:35:07;3.90;;;1.80;;
59872;SDS011;50750;51.636;4.948;2023-02-28T08:37:35;3.10;;;1.90;;
59872;SDS011;50750;51.636;4.948;2023-02-28T08:40:02;3.20;;;1.70;;
59872;SDS011;50750;51.636;4.948;2023-02-28T08:42:30;3.10;;;1.80;;
59872;SDS011;50750;51.636;4.948;2023-02-28T08:44:58;3.80;;;1.80;;
59872;SDS011;50750;51.636;4.948;2023-02-28T08:47:25;3.70;;;1.70;;
59872;SDS011;50750;51.636;4.948;2023-02-28T08:49:51;4.30;;;1.70;;
59872;SDS011;50750;51.636;4.948;2023-02-28T08:52:18;3.40;;;1.80;;
59872;SDS011;50750;51.636;4.948;2023-02-28T08:54:44;2.80;;;1.60;;
59872;SDS011;50750;51.636;4.948;2023-02-28T08:57:11;3.20;;;1.80;;
59872;SDS011;50750;51.636;4.948;2023-02-28T08:59:37;2.90;;;1.80;;
59872;SDS011;50750;51.636;4.948;2023-02-28T09:02:04;2.50;;;1.60;;
59872;SDS011;50750;51.636;4.948;2023-02-28T09:04:30;2.90;;;1.70;;
59872;SDS011;50750;51.636;4.948;2023-02-28T09:06:57;3.30;;;1.60;;
59872;SDS011;50750;51.636;4.948;2023-02-28T09:09:23;3.40;;;1.60;;
59872;SDS011;50750;51.636;4.948;2023-02-28T09:11:50;2.70;;;1.60;;
59872;SDS011;50750;51.636;4.948;2023-02-28T09:14:16;3.10;;;1.60;;
59872;SDS011;50750;51.636;4.948;2023-02-28T09:16:43;2.90;;;1.70;;
59872;SDS011;50750;51.636;4.948;2023-02-28T09:19:10;2.90;;;1.70;;
59872;SDS011;50750;51.636;4.948;2023-02-28T09:21:39;3.70;;;1.50;;
59872;SDS011;50750;51.636;4.948;2023-02-28T09:24:05;2.70;;;1.60;;
59872;SDS011;50750;51.636;4.948;2023-02-28T09:26:33;2.70;;;1.40;;
59872;SDS011;50750;51.636;4.948;2023-02-28T09:29:00;2.80;;;1.40;;
59872;SDS011;50750;51.636;4.948;2023-02-28T09:31:28;3.00;;;1.40;;
59872;SDS011;50750;51.636;4.948;2023-02-28T09:33:56;2.30;;;1.40;;
59872;SDS011;50750;51.636;4.948;2023-02-28T09:36:23;2.40;;;1.30;;
59872;SDS011;50750;51.636;4.948;2023-02-28T09:38:51;4.00;;;1.50;;
59872;SDS011;50750;51.636;4.948;2023-02-28T09:41:20;2.60;;;1.40;;
59872;SDS011;50750;51.636;4.948;2023-02-28T09:43:52;3.50;;;1.40;;
59872;SDS011;50750;51.636;4.948;2023-02-28T09:46:27;2.60;;;1.50;;
59872;SDS011;50750;51.636;4.948;2023-02-28T09:48:58;2.70;;;1.50;;
59872;SDS011;50750;51.636;4.948;2023-02-28T09:54:14;3.30;;;1.50;;
59872;SDS011;50750;51.636;4.948;2023-02-28T09:56:48;2.50;;;1.40;;
59872;SDS011;50750;51.636;4.948;2023-02-28T10:02:12;3.00;;;1.20;;
59872;SDS011;50750;51.636;4.948;2023-02-28T10:10:25;2.80;;;1.40;;
59872;SDS011;50750;51.636;4.948;2023-02-28T10:12:53;2.10;;;1.30;;
59872;SDS011;50750;51.636;4.948;2023-02-28T10:15:23;2.30;;;1.30;;
59872;SDS011;50750;51.636;4.948;2023-02-28T10:20:24;2.40;;;1.40;;
59872;SDS011;50750;51.636;4.948;2023-02-28T10:25:54;2.80;;;1.40;;
59872;SDS011;50750;51.636;4.948;2023-02-28T10:28:25;2.30;;;1.30;;
59872;SDS011;50750;51.636;4.948;2023-02-28T10:33:22;2.50;;;1.40;;
59872;SDS011;50750;51.636;4.948;2023-02-28T10:35:49;2.70;;;1.30;;
59872;SDS011;50750;51.636;4.948;2023-02-28T10:38:18;2.50;;;1.40;;
59872;SDS011;50750;51.636;4.948;2023-02-28T10:40:50;2.20;;;1.10;;
59872;SDS011;50750;51.636;4.948;2023-02-28T10:43:19;2.30;;;1.10;;
59872;SDS011;50750;51.636;4.948;2023-02-28T10:45:57;1.80;;;1.20;;
59872;SDS011;50750;51.636;4.948;2023-02-28T10:48:38;2.90;;;1.50;;
59872;SDS011;50750;51.636;4.948;2023-02-28T10:51:07;3.20;;;1.30;;
59872;SDS011;50750;51.636;4.948;2023-02-28T10:53:51;2.30;;;1.30;;
59872;SDS011;50750;51.636;4.948;2023-02-28T10:56:20;2.40;;;1.20;;
59872;SDS011;50750;51.636;4.948;2023-02-28T11:01:35;1.80;;;1.00;;
59872;SDS011;50750;51.636;4.948;2023-02-28T11:04:02;1.90;;;1.20;;
59872;SDS011;50750;51.636;4.948;2023-02-28T11:06:30;2.60;;;1.30;;
59872;SDS011;50750;51.636;4.948;2023-02-28T11:11:28;2.40;;;1.40;;
59872;SDS011;50750;51.636;4.948;2023-02-28T11:14:02;2.10;;;1.20;;
59872;SDS011;50750;51.636;4.948;2023-02-28T11:16:34;2.60;;;1.20;;
59872;SDS011;50750;51.636;4.948;2023-02-28T11:19:04;2.10;;;1.30;;
59872;SDS011;50750;51.636;4.948;2023-02-28T11:21:45;2.60;;;1.20;;
59872;SDS011;50750;51.636;4.948;2023-02-28T11:24:26;2.10;;;1.30;;
59872;SDS011;50750;51.636;4.948;2023-02-28T11:26:56;2.40;;;1.20;;
59872;SDS011;50750;51.636;4.948;2023-02-28T11:34:40;2.00;;;1.20;;
59872;SDS011;50750;51.636;4.948;2023-02-28T11:37:18;2.40;;;1.20;;
59872;SDS011;50750;51.636;4.948;2023-02-28T11:39:45;2.70;;;1.30;;
59872;SDS011;50750;51.636;4.948;2023-02-28T12:01:30;2.00;;;1.00;;
59872;SDS011;50750;51.636;4.948;2023-02-28T12:04:01;2.00;;;1.20;;
59872;SDS011;50750;51.636;4.948;2023-02-28T12:06:45;2.00;;;1.10;;
59872;SDS011;50750;51.636;4.948;2023-02-28T12:09:33;1.90;;;1.00;;
59872;SDS011;50750;51.636;4.948;2023-02-28T12:12:07;2.00;;;1.00;;
59872;SDS011;50750;51.636;4.948;2023-02-28T12:20:30;1.80;;;1.10;;
59872;SDS011;50750;51.636;4.948;2023-02-28T12:28:15;2.30;;;1.20;;
59872;SDS011;50750;51.636;4.948;2023-02-28T12:30:51;1.60;;;1.00;;
59872;SDS011;50750;51.636;4.948;2023-02-28T12:33:24;2.40;;;1.10;;
59872;SDS011;50750;51.636;4.948;2023-02-28T12:36:01;2.30;;;1.10;;
59872;SDS011;50750;51.636;4.948;2023-02-28T12:38:36;2.40;;;0.90;;
59872;SDS011;50750;51.636;4.948;2023-02-28T12:41:41;1.90;;;1.10;;
59872;SDS011;50750;51.636;4.948;2023-02-28T12:44:15;2.40;;;1.20;;
59872;SDS011;50750;51.636;4.948;2023-02-28T12:47:04;2.20;;;1.20;;
59872;SDS011;50750;51.636;4.948;2023-02-28T12:49:44;2.40;;;1.10;;
59872;SDS011;50750;51.636;4.948;2023-02-28T12:52:17;2.70;;;1.30;;
59872;SDS011;50750;51.636;4.948;2023-02-28T13:00:02;2.10;;;1.10;;
59872;SDS011;50750;51.636;4.948;2023-02-28T13:10:45;2.40;;;1.20;;
59872;SDS011;50750;51.636;4.948;2023-02-28T13:13:17;1.80;;;1.00;;
59872;SDS011;50750;51.636;4.948;2023-02-28T13:16:03;1.80;;;1.00;;
59872;SDS011;50750;51.636;4.948;2023-02-28T13:18:36;1.80;;;1.10;;
59872;SDS011;50750;51.636;4.948;2023-02-28T13:21:27;1.70;;;1.00;;
59872;SDS011;50750;51.636;4.948;2023-02-28T13:28:58;2.00;;;1.10;;
59872;SDS011;50750;51.636;4.948;2023-02-28T13:31:25;2.30;;;1.30;;
59872;SDS011;50750;51.636;4.948;2023-02-28T13:36:31;1.90;;;1.10;;
59872;SDS011;50750;51.636;4.948;2023-02-28T13:38:59;1.90;;;1.20;;
59872;SDS011;50750;51.636;4.948;2023-02-28T13:49:31;1.70;;;1.10;;
59872;SDS011;50750;51.636;4.948;2023-02-28T14:06:05;1.90;;;1.00;;
59872;SDS011;50750;51.636;4.948;2023-02-28T14:08:37;2.30;;;1.10;;
59872;SDS011;50750;51.636;4.948;2023-02-28T14:11:05;2.00;;;1.20;;
59872;SDS011;50750;51.636;4.948;2023-02-28T14:13:37;1.80;;;1.10;;
59872;SDS011;50750;51.636;4.948;2023-02-28T14:16:11;2.30;;;1.00;;
59872;SDS011;50750;51.636;4.948;2023-02-28T14:18:42;1.80;;;1.00;;
59872;SDS011;50750;51.636;4.948;2023-02-28T14:21:33;1.80;;;1.20;;
59872;SDS011;50750;51.636;4.948;2023-02-28T14:32:26;2.00;;;1.10;;
59872;SDS011;50750;51.636;4.948;2023-02-28T14:35:03;2.20;;;1.20;;
59872;SDS011;50750;51.636;4.948;2023-02-28T14:37:38;1.90;;;1.10;;
59872;SDS011;50750;51.636;4.948;2023-02-28T14:43:03;1.80;;;1.00;;
59872;SDS011;50750;51.636;4.948;2023-02-28T14:45:34;2.70;;;1.30;;
59872;SDS011;50750;51.636;4.948;2023-02-28T14:48:03;2.20;;;1.30;;
59872;SDS011;50750;51.636;4.948;2023-02-28T14:50:35;2.50;;;1.20;;
59872;SDS011;50750;51.636;4.948;2023-02-28T14:53:04;1.90;;;1.20;;
59872;SDS011;50750;51.636;4.948;2023-02-28T14:55:43;2.10;;;1.20;;
59872;SDS011;50750;51.636;4.948;2023-02-28T15:00:59;2.10;;;1.10;;
59872;SDS011;50750;51.636;4.948;2023-02-28T15:06:11;1.80;;;1.30;;
59872;SDS011;50750;51.636;4.948;2023-02-28T15:08:39;1.90;;;1.10;;
59872;SDS011;50750;51.636;4.948;2023-02-28T15:13:49;1.80;;;1.10;;
59872;SDS011;50750;51.636;4.948;2023-02-28T15:18:58;1.60;;;1.00;;
59872;SDS011;50750;51.636;4.948;2023-02-28T15:21:34;2.60;;;1.30;;
59872;SDS011;50750;51.636;4.948;2023-02-28T15:24:23;2.40;;;1.40;;
59872;SDS011;50750;51.636;4.948;2023-02-28T15:27:12;2.00;;;1.10;;
59872;SDS011;50750;51.636;4.948;2023-02-28T15:29:44;1.90;;;1.30;;
59872;SDS011;50750;51.636;4.948;2023-02-28T15:32:35;1.70;;;1.10;;
59872;SDS011;50750;51.636;4.948;2023-02-28T15:40:37;3.00;;;1.80;;
59872;SDS011;50750;51.636;4.948;2023-02-28T15:43:17;2.40;;;1.60;;
59872;SDS011;50750;51.636;4.948;2023-02-28T15:45:59;2.30;;;1.20;;
59872;SDS011;50750;51.636;4.948;2023-02-28T15:48:28;2.40;;;1.20;;
59872;SDS011;50750;51.636;4.948;2023-02-28T15:51:02;2.30;;;1.30;;
59872;SDS011;50750;51.636;4.948;2023-02-28T15:53:30;2.80;;;1.40;;
59872;SDS011;50750;51.636;4.948;2023-02-28T15:56:04;2.20;;;1.30;;
59872;SDS011;50750;51.636;4.948;2023-02-28T15:58:32;2.70;;;1.40;;
59872;SDS011;50750;51.636;4.948;2023-02-28T16:01:07;2.70;;;1.20;;
59872;SDS011;50750;51.636;4.948;2023-02-28T16:03:54;2.60;;;1.40;;
59872;SDS011;50750;51.636;4.948;2023-02-28T16:06:26;2.10;;;1.20;;
59872;SDS011;50750;51.636;4.948;2023-02-28T16:09:03;2.40;;;1.40;;
59872;SDS011;50750;51.636;4.948;2023-02-28T16:13:58;3.00;;;1.40;;
59872;SDS011;50750;51.636;4.948;2023-02-28T16:16:25;1.90;;;1.00;;
59872;SDS011;50750;51.636;4.948;2023-02-28T16:18:52;2.30;;;1.50;;
59872;SDS011;50750;51.636;4.948;2023-02-28T16:21:20;1.70;;;1.10;;
59872;SDS011;50750;51.636;4.948;2023-02-28T16:23:47;2.60;;;1.30;;
59872;SDS011;50750;51.636;4.948;2023-02-28T16:26:16;2.10;;;1.10;;
59872;SDS011;50750;51.636;4.948;2023-02-28T16:28:47;3.80;;;1.40;;
59872;SDS011;50750;51.636;4.948;2023-02-28T16:31:14;2.20;;;1.20;;
59872;SDS011;50750;51.636;4.948;2023-02-28T16:33:43;1.90;;;1.10;;
59872;SDS011;50750;51.636;4.948;2023-02-28T16:36:17;2.90;;;1.70;;
59872;SDS011;50750;51.636;4.948;2023-02-28T16:38:46;2.10;;;1.30;;
59872;SDS011;50750;51.636;4.948;2023-02-28T16:41:22;2.60;;;1.20;;
59872;SDS011;50750;51.636;4.948;2023-02-28T16:43:52;3.00;;;1.40;;
59872;SDS011;50750;51.636;4.948;2023-02-28T16:46:25;2.40;;;1.30;;
59872;SDS011;50750;51.636;4.948;2023-02-28T16:48:56;2.20;;;1.10;;
59872;SDS011;50750;51.636;4.948;2023-02-28T16:51:23;2.20;;;1.10;;
59872;SDS011;50750;51.636;4.948;2023-02-28T16:53:50;2.30;;;1.30;;
59872;SDS011;50750;51.636;4.948;2023-02-28T16:58:48;2.00;;;1.10;;
59872;SDS011;50750;51.636;4.948;2023-02-28T17:01:16;2.00;;;1.30;;
59872;SDS011;50750;51.636;4.948;2023-02-28T17:03:43;2.40;;;1.30;;
59872;SDS011;50750;51.636;4.948;2023-02-28T17:06:16;2.10;;;1.10;;
59872;SDS011;50750;51.636;4.948;2023-02-28T17:08:45;1.90;;;1.00;;
59872;SDS011;50750;51.636;4.948;2023-02-28T17:11:13;2.20;;;1.40;;
59872;SDS011;50750;51.636;4.948;2023-02-28T17:13:39;2.00;;;1.20;;
59872;SDS011;50750;51.636;4.948;2023-02-28T17:16:08;2.10;;;1.20;;
59872;SDS011;50750;51.636;4.948;2023-02-28T17:18:44;2.30;;;1.30;;
59872;SDS011;50750;51.636;4.948;2023-02-28T17:21:14;2.10;;;1.10;;
59872;SDS011;50750;51.636;4.948;2023-02-28T17:23:42;2.20;;;1.30;;
59872;SDS011;50750;51.636;4.948;2023-02-28T17:26:11;2.80;;;1.40;;
59872;SDS011;50750;51.636;4.948;2023-02-28T17:28:39;2.00;;;1.10;;
59872;SDS011;50750;51.636;4.948;2023-02-28T17:31:07;2.10;;;1.30;;
59872;SDS011;50750;51.636;4.948;2023-02-28T17:33:34;2.20;;;1.30;;
59872;SDS011;50750;51.636;4.948;2023-02-28T17:36:00;2.10;;;1.20;;
59872;SDS011;50750;51.636;4.948;2023-02-28T17:38:27;1.90;;;1.10;;
59872;SDS011;50750;51.636;4.948;2023-02-28T17:40:54;2.10;;;1.10;;
59872;SDS011;50750;51.636;4.948;2023-02-28T17:43:26;2.80;;;1.50;;
59872;SDS011;50750;51.636;4.948;2023-02-28T17:45:53;2.30;;;1.20;;
59872;SDS011;50750;51.636;4.948;2023-02-28T17:48:20;2.40;;;1.20;;
59872;SDS011;50750;51.636;4.948;2023-02-28T17:50:46;2.00;;;1.20;;
59872;SDS011;50750;51.636;4.948;2023-02-28T17:53:13;2.50;;;1.20;;
59872;SDS011;50750;51.636;4.948;2023-02-28T17:55:40;2.30;;;1.20;;
59872;SDS011;50750;51.636;4.948;2023-02-28T17:58:08;2.80;;;1.40;;
59872;SDS011;50750;51.636;4.948;2023-02-28T18:00:37;2.20;;;1.20;;
59872;SDS011;50750;51.636;4.948;2023-02-28T18:03:04;2.40;;;1.30;;
59872;SDS011;50750;51.636;4.948;2023-02-28T18:05:31;2.20;;;1.20;;
59872;SDS011;50750;51.636;4.948;2023-02-28T18:07:58;2.10;;;1.20;;
59872;SDS011;50750;51.636;4.948;2023-02-28T18:10:25;3.00;;;1.50;;